Time;durP1;ratioP1;P1;durP2;ratioP2;P2;SDS_P1;SDS_P2;PMS_P1;PMS_P2;Temp;Humidity;BMP_temperature;BMP_pressure;BME280_temperature;BME280_humidity;BME280_pressure;Samples;Min_cycle;Max_cycle;Signal;HPM_P1;HPM_P2
2023/02/10 00:01:16;;;;;;;56.30;27.40;;;4.40;99.90;;;;;;5050402;28;20443;-51
2023/02/10 00:03:42;;;;;;;59.57;27.73;;;4.40;99.90;;;;;;5048117;28;20454;-52
2023/02/10 00:06:09;;;;;;;58.97;27.03;;;4.40;99.90;;;;;;5050928;28;20092;-53
2023/02/10 00:08:36;;;;;;;55.67;26.90;;;4.40;99.90;;;;;;5050351;28;20261;-51
2023/02/10 00:11:07;;;;;;;62.17;28.00;;;4.40;99.90;;;;;;5050777;28;20127;-46
2023/02/10 00:13:33;;;;;;;55.03;27.60;;;4.40;99.90;;;;;;5050416;28;20202;-48
2023/02/10 00:16:01;;;;;;;58.77;28.17;;;4.40;99.90;;;;;;5050659;28;20691;-51
2023/02/10 00:18:28;;;;;;;55.83;28.37;;;4.40;99.90;;;;;;5049850;28;20501;-53
2023/02/10 00:20:54;;;;;;;64.00;28.13;;;4.50;99.90;;;;;;5050199;28;20048;-49
2023/02/10 00:23:20;;;;;;;54.53;26.63;;;4.40;99.90;;;;;;5050315;28;20576;-48
2023/02/10 00:25:46;;;;;;;58.93;28.77;;;4.40;99.90;;;;;;5050254;28;20075;-51
2023/02/10 00:28:12;;;;;;;56.47;27.00;;;4.40;99.90;;;;;;5050176;28;20046;-49
2023/02/10 00:30:38;;;;;;;69.37;29.37;;;4.40;99.90;;;;;;5048993;28;20076;-52
2023/02/10 00:33:05;;;;;;;62.50;29.23;;;4.40;99.90;;;;;;5049804;28;20071;-50
2023/02/10 00:35:31;;;;;;;61.83;29.33;;;4.40;99.90;;;;;;5049265;28;20545;-50
2023/02/10 00:37:57;;;;;;;59.10;28.83;;;4.40;99.90;;;;;;5048659;28;20025;-54
2023/02/10 00:40:22;;;;;;;57.47;28.73;;;4.50;99.90;;;;;;5049880;28;20104;-50
2023/02/10 00:42:48;;;;;;;62.50;29.00;;;4.50;99.90;;;;;;5048598;28;20029;-51
2023/02/10 00:45:14;;;;;;;62.37;29.43;;;4.50;99.90;;;;;;5048416;28;20036;-50
2023/02/10 00:47:40;;;;;;;59.63;28.40;;;4.50;99.90;;;;;;5047959;28;20029;-53
2023/02/10 00:50:06;;;;;;;56.07;27.37;;;4.50;99.90;;;;;;5049266;28;20033;-48
2023/02/10 00:52:32;;;;;;;57.57;29.00;;;4.50;99.90;;;;;;5049992;28;20028;-51
2023/02/10 00:54:57;;;;;;;58.77;28.17;;;4.60;99.90;;;;;;5049680;28;20087;-53
2023/02/10 00:57:23;;;;;;;56.27;28.87;;;4.60;99.90;;;;;;5049624;28;20029;-53
2023/02/10 00:59:49;;;;;;;58.60;29.17;;;4.50;99.90;;;;;;5048607;28;20044;-51
2023/02/10 01:02:15;;;;;;;63.50;28.53;;;4.60;99.90;;;;;;5049726;28;20067;-51
2023/02/10 01:04:40;;;;;;;63.30;29.87;;;4.60;99.90;;;;;;5048943;28;20060;-50
2023/02/10 01:07:06;;;;;;;64.30;28.17;;;4.50;99.90;;;;;;5049531;28;20035;-50
2023/02/10 01:09:32;;;;;;;62.33;29.57;;;4.60;99.90;;;;;;5049567;28;20076;-50
2023/02/10 01:11:58;;;;;;;61.37;29.77;;;4.60;99.90;;;;;;5048795;28;20044;-52
2023/02/10 01:14:24;;;;;;;62.13;29.77;;;4.60;99.90;;;;;;5048078;28;20047;-48
2023/02/10 01:16:50;;;;;;;69.17;30.67;;;4.60;99.90;;;;;;5049004;28;20492;-52
2023/02/10 01:19:16;;;;;;;60.50;29.30;;;4.60;99.90;;;;;;5048721;28;20044;-52
2023/02/10 01:21:42;;;;;;;63.97;29.50;;;4.60;99.90;;;;;;5048187;28;20025;-49
2023/02/10 01:24:09;;;;;;;69.27;31.53;;;4.60;99.90;;;;;;5047841;28;20465;-52
2023/02/10 01:26:34;;;;;;;61.97;30.33;;;4.60;99.90;;;;;;5049349;28;20086;-51
2023/02/10 01:29:00;;;;;;;58.30;29.27;;;4.50;99.90;;;;;;5047965;28;20123;-51
2023/02/10 01:31:26;;;;;;;63.80;31.03;;;4.50;99.90;;;;;;5049600;28;20044;-53
2023/02/10 01:33:54;;;;;;;65.30;30.83;;;4.40;99.90;;;;;;5048021;28;20040;-49
2023/02/10 01:36:23;;;;;;;59.70;29.03;;;4.40;99.90;;;;;;5047975;28;20197;-50
2023/02/10 01:38:49;;;;;;;65.03;30.27;;;4.40;99.90;;;;;;5049069;28;20041;-48
2023/02/10 01:41:17;;;;;;;61.10;30.37;;;4.40;99.90;;;;;;5049629;28;20025;-52
2023/02/10 01:44:04;;;;;;;65.60;31.13;;;4.40;99.90;;;;;;5049117;28;20490;-52
2023/02/10 01:46:34;;;;;;;63.57;30.77;;;4.40;99.90;;;;;;5049277;28;20036;-52
2023/02/10 01:49:06;;;;;;;62.63;29.63;;;4.40;99.90;;;;;;5048498;28;20086;-50
2023/02/10 01:51:39;;;;;;;60.73;29.37;;;4.40;99.90;;;;;;5048080;28;20044;-52
2023/02/10 01:54:09;;;;;;;66.63;30.97;;;4.50;99.90;;;;;;5049219;28;20040;-52
2023/02/10 01:56:35;;;;;;;62.73;31.30;;;4.50;99.90;;;;;;5047678;28;20045;-52
2023/02/10 01:59:01;;;;;;;64.57;30.57;;;4.50;99.90;;;;;;5047698;28;20052;-50
2023/02/10 02:01:27;;;;;;;63.57;30.43;;;4.50;99.90;;;;;;5049561;28;20025;-49
2023/02/10 02:03:53;;;;;;;65.90;30.07;;;4.40;99.90;;;;;;5029891;28;20424;-50
2023/02/10 02:06:19;;;;;;;63.83;30.87;;;4.40;99.90;;;;;;5047975;28;20103;-51
2023/02/10 02:08:46;;;;;;;70.77;30.83;;;4.40;99.90;;;;;;5049164;28;20457;-49
2023/02/10 02:11:23;;;;;;;62.07;30.17;;;4.40;99.90;;;;;;5049512;28;20040;-54
2023/02/10 02:13:54;;;;;;;66.97;31.17;;;4.40;99.90;;;;;;5047570;28;20061;-46
2023/02/10 02:16:34;;;;;;;71.47;31.10;;;4.40;99.90;;;;;;5049220;28;20036;-48
2023/02/10 02:19:29;;;;;;;60.92;30.05;;;4.40;99.90;;;;;;5048511;28;20410;-49
2023/02/10 02:22:20;;;;;;;64.07;31.00;;;4.40;99.90;;;;;;5027056;28;20091;-50
2023/02/10 02:25:16;;;;;;;64.87;29.57;;;4.30;99.90;;;;;;5050868;28;20033;-50
2023/02/10 02:28:05;;;;;;;64.47;29.90;;;4.30;99.90;;;;;;5052882;28;20021;-48
2023/02/10 02:30:55;;;;;;;63.50;31.90;;;4.30;99.90;;;;;;5053094;28;20044;-51
2023/02/10 02:33:31;;;;;;;61.57;29.73;;;4.20;99.90;;;;;;5052635;28;20121;-51
2023/02/10 02:36:07;;;;;;;66.57;30.23;;;4.20;99.90;;;;;;5051578;28;20029;-53
2023/02/10 02:38:40;;;;;;;66.77;30.00;;;4.20;99.90;;;;;;5050996;28;20123;-50
2023/02/10 02:41:07;;;;;;;69.13;31.93;;;4.10;99.90;;;;;;5051420;28;20059;-50
2023/02/10 02:43:33;;;;;;;68.77;31.67;;;4.10;99.90;;;;;;5050971;28;20036;-50
2023/02/10 02:46:31;;;;;;;69.20;31.57;;;4.00;99.90;;;;;;5051435;28;20567;-50
2023/02/10 02:49:16;;;;;;;72.18;32.40;;;4.00;99.90;;;;;;5050358;28;20033;-48
2023/02/10 02:52:17;;;;;;;63.37;30.63;;;4.00;99.90;;;;;;5052628;28;20032;-50
2023/02/10 02:55:16;;;;;;;67.17;31.10;;;3.90;99.90;;;;;;5052458;28;20063;-51
2023/02/10 02:57:47;;;;;;;69.00;30.85;;;3.90;99.90;;;;;;5049079;28;20475;-51
2023/02/10 03:00:19;;;;;;;70.73;31.73;;;3.90;99.90;;;;;;5051078;28;20395;-50
2023/02/10 03:02:47;;;;;;;71.27;31.67;;;3.90;99.90;;;;;;5050527;28;20025;-52
2023/02/10 03:05:21;;;;;;;70.53;31.63;;;3.90;99.90;;;;;;5051363;28;20094;-50
2023/02/10 03:07:47;;;;;;;71.97;32.80;;;3.90;99.90;;;;;;5050451;28;20040;-50
2023/02/10 03:10:12;;;;;;;70.47;31.30;;;3.90;99.90;;;;;;5051918;28;20033;-51
2023/02/10 03:12:38;;;;;;;64.77;29.63;;;3.90;99.90;;;;;;5051898;28;20037;-49
2023/02/10 03:15:04;;;;;;;69.63;31.43;;;3.90;99.90;;;;;;5051816;28;20473;-51
2023/02/10 03:17:30;;;;;;;66.13;30.63;;;3.90;99.90;;;;;;5051193;28;20036;-50
2023/02/10 03:19:56;;;;;;;66.27;30.87;;;3.90;99.90;;;;;;5051144;28;20069;-49
2023/02/10 03:22:21;;;;;;;63.00;30.73;;;3.90;99.90;;;;;;5051846;28;20494;-47
2023/02/10 03:24:47;;;;;;;62.10;29.70;;;3.90;99.90;;;;;;5051473;28;20033;-51
2023/02/10 03:27:13;;;;;;;66.33;30.57;;;3.80;99.90;;;;;;5051330;28;20044;-49
2023/02/10 03:29:38;;;;;;;60.77;29.13;;;3.80;99.90;;;;;;5051637;28;20067;-45
2023/02/10 03:32:05;;;;;;;67.10;31.43;;;3.80;99.90;;;;;;5051389;28;20512;-46
2023/02/10 03:34:31;;;;;;;71.23;31.73;;;3.70;99.90;;;;;;5050181;28;20139;-46
2023/02/10 03:36:57;;;;;;;67.47;30.63;;;3.70;99.90;;;;;;5050657;28;20124;-51
2023/02/10 03:39:23;;;;;;;62.60;30.80;;;3.60;99.90;;;;;;5051252;28;20032;-46
2023/02/10 03:41:48;;;;;;;62.80;30.50;;;3.50;99.90;;;;;;5049970;28;20041;-49
2023/02/10 03:44:14;;;;;;;60.03;28.37;;;3.50;99.90;;;;;;5051567;28;20037;-49
2023/02/10 03:46:40;;;;;;;65.77;31.47;;;3.40;99.90;;;;;;5032900;28;20021;-53
2023/02/10 03:49:06;;;;;;;66.67;30.33;;;3.40;99.90;;;;;;5030547;28;20041;-51
2023/02/10 03:51:32;;;;;;;61.57;29.97;;;3.30;99.90;;;;;;5031579;28;20320;-54
2023/02/10 03:53:58;;;;;;;62.13;30.20;;;3.30;99.90;;;;;;5030980;28;20029;-50
2023/02/10 03:56:23;;;;;;;63.47;29.07;;;3.20;99.90;;;;;;5051008;23;20063;-55
2023/02/10 03:58:49;;;;;;;63.20;30.73;;;3.10;99.90;;;;;;5050831;28;20052;-55
2023/02/10 04:01:16;;;;;;;62.90;31.87;;;3.10;99.90;;;;;;5051267;28;20037;-54
2023/02/10 04:03:43;;;;;;;68.93;31.27;;;3.10;99.90;;;;;;5049576;28;20031;-54
2023/02/10 04:06:10;;;;;;;67.93;32.40;;;3.10;99.90;;;;;;5046810;28;20033;-56
2023/02/10 04:08:37;;;;;;;67.27;31.37;;;3.10;99.90;;;;;;5030045;28;20402;-54
2023/02/10 04:11:04;;;;;;;64.23;32.17;;;3.10;99.90;;;;;;5030615;28;20109;-56
2023/02/10 04:13:30;;;;;;;66.73;31.87;;;3.10;99.90;;;;;;5030040;28;20033;-54
2023/02/10 04:16:16;;;;;;;68.63;32.23;;;3.10;99.90;;;;;;5030545;28;20375;-55
2023/02/10 04:18:43;;;;;;;65.57;31.23;;;3.10;99.90;;;;;;5028945;28;20033;-55
2023/02/10 04:21:10;;;;;;;65.43;29.83;;;3.10;99.90;;;;;;5030282;28;20108;-55
2023/02/10 04:23:36;;;;;;;66.03;30.63;;;3.10;99.90;;;;;;5028543;28;20415;-54
2023/02/10 04:26:03;;;;;;;66.03;30.40;;;3.10;99.90;;;;;;5030699;28;20212;-54
2023/02/10 04:28:28;;;;;;;64.10;29.97;;;3.10;99.90;;;;;;5030075;28;20346;-54
2023/02/10 04:30:56;;;;;;;63.67;30.50;;;3.00;99.90;;;;;;5030344;28;20025;-55
2023/02/10 04:33:24;;;;;;;66.53;30.73;;;3.10;99.90;;;;;;5029812;28;20026;-54
2023/02/10 04:35:51;;;;;;;65.43;31.60;;;3.10;99.90;;;;;;5029504;28;20125;-54
2023/02/10 04:38:17;;;;;;;56.93;29.40;;;3.00;99.90;;;;;;5037595;28;20029;-57
2023/02/10 04:40:43;;;;;;;63.77;29.90;;;3.00;99.90;;;;;;5049118;28;20517;-56
2023/02/10 04:43:10;;;;;;;64.73;31.83;;;2.90;99.90;;;;;;5048697;28;20101;-56
2023/02/10 04:45:36;;;;;;;66.97;30.90;;;2.90;99.90;;;;;;5049599;28;20469;-55
2023/02/10 04:48:02;;;;;;;66.83;31.10;;;2.80;99.90;;;;;;5049296;28;20071;-55
2023/02/10 04:50:28;;;;;;;66.57;30.93;;;2.80;99.90;;;;;;5048921;28;20442;-55
2023/02/10 04:52:54;;;;;;;69.17;31.80;;;2.80;99.90;;;;;;5049610;28;20025;-56
2023/02/10 04:55:19;;;;;;;67.07;31.37;;;2.70;99.90;;;;;;5049514;28;20077;-57
2023/02/10 04:57:45;;;;;;;65.67;31.67;;;2.70;99.90;;;;;;5049270;28;20064;-57
2023/02/10 05:00:12;;;;;;;70.40;31.47;;;2.70;99.90;;;;;;5049238;28;20103;-56
2023/02/10 05:02:37;;;;;;;66.90;31.37;;;2.80;99.90;;;;;;5048749;28;20100;-57
2023/02/10 05:05:03;;;;;;;70.40;32.10;;;2.80;99.90;;;;;;5048220;28;20112;-57
2023/02/10 05:07:29;;;;;;;67.87;31.30;;;2.80;99.90;;;;;;5049064;28;20096;-56
2023/02/10 05:09:55;;;;;;;70.03;31.00;;;2.80;99.90;;;;;;5049212;28;20699;-56
2023/02/10 05:12:21;;;;;;;70.87;31.87;;;2.80;99.90;;;;;;5049221;28;20036;-56
2023/02/10 05:14:46;;;;;;;74.43;35.03;;;2.80;99.90;;;;;;5048856;28;20120;-58
2023/02/10 05:17:12;;;;;;;67.10;31.70;;;2.80;99.90;;;;;;5048594;28;20033;-60
2023/02/10 05:19:38;;;;;;;69.80;31.70;;;2.80;99.90;;;;;;5048785;28;20041;-58
2023/02/10 05:22:03;;;;;;;69.63;32.43;;;2.90;99.90;;;;;;5047760;28;20028;-57
2023/02/10 05:24:29;;;;;;;73.30;32.50;;;2.80;99.90;;;;;;5050107;28;20021;-57
2023/02/10 05:26:55;;;;;;;76.00;34.67;;;2.80;99.90;;;;;;5048729;28;20059;-57
2023/02/10 05:29:20;;;;;;;72.37;32.27;;;2.80;99.90;;;;;;5049238;28;20029;-57
2023/02/10 05:31:46;;;;;;;71.37;31.67;;;2.80;99.90;;;;;;5050506;28;20087;-57
2023/02/10 05:34:12;;;;;;;77.53;33.57;;;2.80;99.90;;;;;;5049624;28;20041;-58
2023/02/10 05:36:37;;;;;;;71.97;32.63;;;2.80;99.90;;;;;;5050248;28;20033;-58
2023/02/10 05:41:47;;;;;;;69.53;31.53;;;2.80;99.90;;;;;;5050608;28;20420;-57
2023/02/10 05:44:13;;;;;;;76.43;32.70;;;2.90;99.90;;;;;;5050324;28;20112;-57
2023/02/10 05:46:39;;;;;;;73.23;33.27;;;2.90;99.90;;;;;;5050195;28;20334;-56
2023/02/10 05:49:04;;;;;;;79.03;34.10;;;2.90;99.90;;;;;;5050578;28;20481;-57
2023/02/10 05:51:30;;;;;;;71.83;33.20;;;2.90;99.90;;;;;;5050435;28;20071;-57
2023/02/10 05:53:56;;;;;;;70.77;33.33;;;3.00;99.90;;;;;;5050156;28;20061;-57
2023/02/10 05:56:21;;;;;;;71.70;32.37;;;2.90;99.90;;;;;;5049914;28;20041;-57
2023/02/10 05:58:47;;;;;;;73.07;32.13;;;3.00;99.90;;;;;;5051815;28;20057;-57
2023/02/10 06:01:13;;;;;;;76.47;33.03;;;3.00;99.90;;;;;;5054385;28;20402;-57
2023/02/10 06:03:38;;;;;;;69.13;31.33;;;3.10;99.90;;;;;;5054235;28;20462;-57
2023/02/10 06:06:04;;;;;;;73.27;31.37;;;3.00;99.90;;;;;;5054340;28;20032;-57
2023/02/10 06:08:30;;;;;;;69.90;31.20;;;3.00;99.90;;;;;;5054091;28;20033;-57
2023/02/10 06:10:56;;;;;;;71.90;33.07;;;3.10;99.90;;;;;;5054316;28;20386;-57
2023/02/10 06:13:22;;;;;;;71.93;32.20;;;3.00;99.90;;;;;;5054114;28;20247;-57
2023/02/10 06:15:47;;;;;;;68.03;32.27;;;3.10;99.90;;;;;;5054059;28;20029;-57
2023/02/10 06:18:13;;;;;;;71.90;30.80;;;3.10;99.90;;;;;;5053968;28;20105;-57
2023/02/10 06:20:39;;;;;;;67.63;31.67;;;3.10;99.90;;;;;;5054156;28;20078;-57
2023/02/10 06:23:05;;;;;;;76.50;33.30;;;3.10;99.90;;;;;;5054145;28;20029;-57
2023/02/10 06:25:31;;;;;;;71.77;31.60;;;3.10;99.90;;;;;;5054166;28;20099;-56
2023/02/10 06:27:56;;;;;;;71.33;31.67;;;3.10;99.90;;;;;;5053867;28;20027;-57
2023/02/10 06:30:22;;;;;;;71.67;32.03;;;3.10;99.90;;;;;;5053877;28;20196;-57
2023/02/10 06:32:48;;;;;;;69.43;31.67;;;3.20;99.90;;;;;;5053937;28;20378;-57
2023/02/10 06:35:14;;;;;;;73.87;31.10;;;3.10;99.90;;;;;;5053645;28;20041;-57
2023/02/10 06:37:39;;;;;;;72.00;30.30;;;3.10;99.90;;;;;;5053607;28;20059;-57
2023/02/10 06:40:06;;;;;;;65.63;30.30;;;3.10;99.90;;;;;;5053649;28;20035;-57
2023/02/10 06:42:32;;;;;;;70.20;30.80;;;3.10;99.90;;;;;;5053726;28;20036;-57
2023/02/10 06:44:58;;;;;;;74.90;32.13;;;3.10;99.90;;;;;;5053439;28;20025;-57
2023/02/10 06:47:24;;;;;;;71.73;31.73;;;3.00;99.90;;;;;;5053366;28;20033;-57
2023/02/10 06:49:49;;;;;;;77.77;32.70;;;2.90;99.90;;;;;;5053600;28;20025;-56
2023/02/10 06:52:15;;;;;;;69.23;31.97;;;2.90;99.90;;;;;;5053486;28;20036;-57
2023/02/10 06:54:41;;;;;;;71.97;32.73;;;2.90;99.90;;;;;;5053346;28;20029;-57
2023/02/10 06:57:07;;;;;;;73.93;31.57;;;2.90;99.90;;;;;;5053036;28;20056;-57
2023/02/10 06:59:33;;;;;;;69.30;30.90;;;2.80;99.90;;;;;;5053246;28;20497;-57
2023/02/10 07:02:02;;;;;;;81.43;33.03;;;2.80;99.90;;;;;;5053328;28;20025;-56
2023/02/10 07:04:29;;;;;;;83.03;34.05;;;2.80;99.90;;;;;;5053197;28;20382;-56
2023/02/10 07:06:56;;;;;;;74.67;32.47;;;2.80;99.90;;;;;;5052939;28;20021;-57
2023/02/10 07:09:21;;;;;;;69.60;31.73;;;2.80;99.90;;;;;;5053130;28;20069;-57
2023/02/10 07:11:48;;;;;;;69.50;31.17;;;2.80;99.90;;;;;;5053182;28;20408;-56
2023/02/10 07:14:14;;;;;;;71.27;30.03;;;2.70;99.90;;;;;;5052894;28;20397;-57
2023/02/10 07:16:39;;;;;;;73.00;33.57;;;2.80;99.90;;;;;;5052788;28;20037;-57
2023/02/10 07:19:05;;;;;;;67.93;31.33;;;2.70;99.90;;;;;;5052901;28;20394;-57
2023/02/10 07:21:32;;;;;;;72.07;30.87;;;2.70;99.90;;;;;;5052964;28;20029;-57
2023/02/10 07:23:57;;;;;;;66.10;30.80;;;2.70;99.90;;;;;;5052825;28;20304;-57
2023/02/10 07:26:23;;;;;;;71.30;31.47;;;2.70;99.90;;;;;;5053106;28;20492;-57
2023/02/10 07:28:49;;;;;;;69.47;32.70;;;2.70;99.90;;;;;;5052763;28;20438;-57
2023/02/10 07:31:15;;;;;;;76.30;33.73;;;2.70;99.90;;;;;;5052667;28;20043;-57
2023/02/10 07:33:40;;;;;;;69.93;32.33;;;2.60;99.90;;;;;;5052649;28;20123;-57
2023/02/10 07:36:07;;;;;;;69.87;32.50;;;2.60;99.90;;;;;;5052621;28;20029;-57
2023/02/10 07:38:33;;;;;;;74.43;34.23;;;2.60;99.90;;;;;;5052693;28;20110;-57
2023/02/10 07:40:59;;;;;;;72.17;33.63;;;2.60;99.90;;;;;;5052648;28;20025;-57
2023/02/10 07:43:24;;;;;;;73.87;33.40;;;2.60;99.90;;;;;;5052497;28;20334;-57
2023/02/10 07:46:01;;;;;;;71.87;32.90;;;2.60;99.90;;;;;;5051213;28;20522;-57
2023/02/10 07:48:26;;;;;;;70.60;31.87;;;2.60;99.90;;;;;;5052314;28;20124;-57
2023/02/10 07:50:52;;;;;;;74.80;33.87;;;2.60;99.90;;;;;;5052356;28;20124;-57
2023/02/10 07:53:20;;;;;;;69.93;31.63;;;2.60;99.90;;;;;;5052067;28;20037;-57
2023/02/10 07:55:47;;;;;;;67.07;31.00;;;2.70;99.90;;;;;;5051935;28;20040;-57
2023/02/10 07:58:12;;;;;;;67.23;32.03;;;2.60;99.90;;;;;;5052060;28;20037;-57
2023/02/10 08:00:38;;;;;;;104.57;45.67;;;2.70;99.90;;;;;;5052042;28;20052;-57
2023/02/10 08:03:04;;;;;;;69.57;33.37;;;2.70;99.90;;;;;;5052245;28;20029;-57
2023/02/10 08:05:31;;;;;;;73.03;32.77;;;2.70;99.90;;;;;;5051770;28;20033;-58
2023/02/10 08:07:56;;;;;;;68.83;30.13;;;2.70;99.90;;;;;;5051943;28;20033;-58
2023/02/10 08:10:23;;;;;;;75.27;31.63;;;2.80;99.90;;;;;;5051897;28;20505;-57
2023/02/10 08:12:49;;;;;;;66.80;29.60;;;2.90;99.90;;;;;;5052158;28;20033;-56
2023/02/10 08:15:17;;;;;;;67.40;32.10;;;3.00;99.90;;;;;;5051862;28;20037;-57
2023/02/10 08:17:44;;;;;;;66.82;30.55;;;3.10;99.90;;;;;;5051663;28;20401;-57
2023/02/10 08:20:10;;;;;;;67.83;31.13;;;3.10;99.90;;;;;;5051988;28;20043;-57
2023/02/10 08:22:36;;;;;;;64.50;31.83;;;3.20;99.90;;;;;;5051168;28;20028;-56
2023/02/10 08:25:02;;;;;;;67.50;30.30;;;3.30;99.90;;;;;;5051507;28;20029;-56
2023/02/10 08:27:28;;;;;;;69.33;32.67;;;3.30;99.90;;;;;;5051515;28;20381;-56
2023/02/10 08:29:55;;;;;;;66.13;30.57;;;3.30;99.90;;;;;;5051702;28;20090;-57
2023/02/10 08:32:21;;;;;;;69.77;31.17;;;3.30;99.90;;;;;;5051719;28;20124;-57
2023/02/10 08:34:48;;;;;;;64.30;30.27;;;3.30;99.90;;;;;;5051410;28;20047;-58
2023/02/10 08:37:14;;;;;;;72.17;32.40;;;3.30;99.90;;;;;;5051260;28;20056;-57
2023/02/10 08:39:39;;;;;;;63.67;29.07;;;3.30;99.90;;;;;;5051242;28;20465;-57
2023/02/10 08:42:06;;;;;;;64.97;30.23;;;3.30;99.90;;;;;;5051322;28;20064;-57
2023/02/10 08:44:32;;;;;;;66.97;31.33;;;3.30;99.90;;;;;;5051116;28;20032;-57
2023/02/10 08:46:57;;;;;;;68.90;31.47;;;3.40;99.90;;;;;;5050957;28;20506;-57
2023/02/10 08:49:24;;;;;;;67.87;31.07;;;3.40;99.90;;;;;;5051256;28;20036;-57
2023/02/10 08:51:54;;;;;;;70.90;32.10;;;3.50;99.90;;;;;;5049717;28;20093;-57
2023/02/10 08:54:21;;;;;;;65.70;30.40;;;3.50;99.90;;;;;;5050882;28;20033;-57
2023/02/10 08:56:46;;;;;;;64.43;29.90;;;3.60;99.90;;;;;;5050763;28;20139;-58
2023/02/10 08:59:12;;;;;;;65.97;30.60;;;3.70;99.90;;;;;;5050944;28;20465;-57
2023/02/10 09:01:38;;;;;;;65.40;30.30;;;3.80;99.90;;;;;;5051392;28;20029;-57
2023/02/10 09:04:04;;;;;;;67.17;31.80;;;3.90;99.90;;;;;;5050762;28;20032;-57
2023/02/10 09:06:38;;;;;;;64.33;29.53;;;3.90;99.90;;;;;;5050411;28;20025;-57
2023/02/10 09:09:19;;;;;;;61.43;31.77;;;4.00;99.90;;;;;;5051068;28;20087;-57
2023/02/10 09:11:46;;;;;;;60.77;30.97;;;4.30;99.90;;;;;;5051116;28;20043;-57
2023/02/10 09:14:11;;;;;;;66.60;31.53;;;4.50;99.90;;;;;;5050914;28;20025;-57
2023/02/10 09:16:38;;;;;;;61.47;30.20;;;4.60;99.90;;;;;;5050555;28;20397;-57
2023/02/10 09:19:04;;;;;;;61.20;29.43;;;5.00;99.90;;;;;;5050533;28;20071;-57
2023/02/10 09:21:31;;;;;;;63.60;30.63;;;5.10;99.90;;;;;;5050694;28;20098;-58
2023/02/10 09:23:57;;;;;;;63.57;30.77;;;5.30;99.90;;;;;;5050624;28;20029;-57
2023/02/10 09:26:22;;;;;;;60.77;30.43;;;5.60;99.90;;;;;;5050420;28;20025;-58
2023/02/10 09:28:48;;;;;;;64.80;31.63;;;5.70;99.90;;;;;;5050542;28;20536;-57
2023/02/10 09:31:15;;;;;;;66.30;31.70;;;5.90;99.90;;;;;;5050506;28;20071;-58
2023/02/10 09:33:42;;;;;;;61.60;31.60;;;6.10;99.90;;;;;;5049346;28;20032;-58
2023/02/10 09:36:13;;;;;;;68.57;32.87;;;6.10;99.90;;;;;;5050439;28;20060;-57
2023/02/10 09:38:39;;;;;;;59.43;31.03;;;6.40;99.90;;;;;;5050295;28;20098;-56
2023/02/10 09:41:35;;;;;;;64.87;31.77;;;6.70;99.90;;;;;;5050468;28;20044;-59
2023/02/10 09:44:12;;;;;;;63.57;31.60;;;7.10;99.90;;;;;;5050758;28;20021;-58
2023/02/10 09:47:02;;;;;;;60.60;30.73;;;7.40;99.90;;;;;;5050274;28;20043;-59
2023/02/10 09:50:02;;;;;;;60.53;30.33;;;7.40;99.90;;;;;;5050556;28;20036;-58
2023/02/10 09:52:55;;;;;;;64.50;31.17;;;7.20;99.90;;;;;;5050288;28;20041;-57
2023/02/10 09:55:21;;;;;;;60.70;32.10;;;6.80;99.90;;;;;;5050134;28;20477;-57
2023/02/10 09:57:55;;;;;;;59.70;32.57;;;6.70;99.90;;;;;;5090726;22;20059;-56
2023/02/10 10:00:28;;;;;;;59.17;31.27;;;7.00;99.90;;;;;;5090354;28;20127;-55
2023/02/10 10:02:55;;;;;;;59.73;30.17;;;7.00;99.90;;;;;;5090945;28;20032;-53
2023/02/10 10:05:53;;;;;;;65.67;31.03;;;7.20;99.90;;;;;;5090251;28;20024;-55
2023/02/10 10:08:27;;;;;;;58.93;30.13;;;7.30;99.90;;;;;;5069948;28;20032;-56
2023/02/10 10:10:56;;;;;;;56.40;29.50;;;7.30;99.90;;;;;;5070208;28;20029;-56
2023/02/10 10:13:25;;;;;;;60.63;30.58;;;7.40;99.90;;;;;;5070082;28;20060;-50
2023/02/10 10:16:16;;;;;;;63.58;31.58;;;7.20;99.90;;;;;;5070167;28;20477;-49
2023/02/10 10:19:02;;;;;;;63.60;31.73;;;7.10;99.90;;;;;;5069913;28;20404;-52
2023/02/10 10:21:52;;;;;;;63.23;31.37;;;7.10;99.90;;;;;;5070059;28;20039;-51
2023/02/10 10:24:26;;;;;;;;;;;7.00;99.90;;;;;;5070562;28;20052;-53
2023/02/10 10:27:06;;;;;;;56.07;28.90;;;7.40;99.90;;;;;;5069813;28;19999;-56
2023/02/10 10:29:39;;;;;;;56.07;30.80;;;8.00;99.90;;;;;;5069988;28;20104;-54
2023/02/10 10:32:25;;;;;;;56.93;31.07;;;8.80;99.90;;;;;;5069870;28;20040;-53
2023/02/10 10:34:52;;;;;;;59.73;32.67;;;9.30;99.90;;;;;;5062113;28;20059;-55
2023/02/10 10:37:22;;;;;;;56.43;31.07;;;9.70;99.90;;;;;;5069830;28;20032;-53
2023/02/10 10:40:07;;;;;;;55.73;30.37;;;10.10;99.90;;;;;;5069670;28;20032;-56
2023/02/10 10:42:46;;;;;;;54.50;29.83;;;10.50;99.90;;;;;;5069892;28;20031;-55
2023/02/10 10:45:29;;;;;;;54.22;30.75;;;10.10;99.90;;;;;;5071803;28;20542;-53
2023/02/10 10:48:01;;;;;;;53.53;29.30;;;9.50;99.90;;;;;;5073181;28;20052;-56
2023/02/10 10:50:27;;;;;;;55.93;30.33;;;9.40;99.90;;;;;;5073533;28;20565;-51
2023/02/10 10:52:55;;;;;;;59.43;31.20;;;9.30;99.90;;;;;;5073341;28;20119;-55
2023/02/10 10:55:31;;;;;;;67.80;32.20;;;9.20;99.90;;;;;;5073312;28;20036;-56
2023/02/10 10:58:00;;;;;;;58.57;30.90;;;9.10;99.90;;;;;;5073043;28;20082;-56
2023/02/10 11:00:29;;;;;;;57.53;30.60;;;9.00;99.90;;;;;;5073527;28;20037;-53
2023/02/10 11:03:03;;;;;;;59.78;31.15;;;9.00;99.90;;;;;;5073268;28;20138;-56
2023/02/10 11:05:36;;;;;;;59.47;30.20;;;8.60;99.90;;;;;;5073003;28;20024;-56
2023/02/10 11:08:05;;;;;;;59.77;29.93;;;8.70;99.90;;;;;;5072918;28;20044;-55
2023/02/10 11:10:46;;;;;;;54.85;29.45;;;8.70;99.90;;;;;;5073161;28;20024;-56
2023/02/10 11:13:25;;;;;;;56.90;28.43;;;9.20;99.90;;;;;;5073034;28;20538;-54
2023/02/10 11:16:17;;;;;;;58.70;29.77;;;9.50;99.90;;;;;;5072936;28;20040;-56
2023/02/10 11:19:00;;;;;;;62.53;30.67;;;9.40;99.90;;;;;;5072871;28;20046;-55
2023/02/10 11:21:37;;;;;;;60.50;28.87;;;9.20;99.90;;;;;;5072886;28;20033;-54
2023/02/10 11:24:15;;;;;;;56.50;29.40;;;8.90;99.90;;;;;;5072648;28;20078;-56
2023/02/10 11:26:41;;;;;;;53.47;26.90;;;8.70;99.90;;;;;;5072572;28;20110;-56
2023/02/10 11:29:11;;;;;;;48.60;24.97;;;8.90;99.90;;;;;;5072725;28;20056;-54
2023/02/10 11:31:37;;;;;;;52.13;25.27;;;9.40;99.90;;;;;;5072766;28;20126;-56
2023/02/10 11:34:21;;;;;;;44.63;23.97;;;10.30;99.90;;;;;;5072654;28;20393;-55
2023/02/10 11:36:47;;;;;;;50.85;24.67;;;11.40;99.90;;;;;;5072387;28;20440;-56
2023/02/10 11:39:33;;;;;;;42.28;22.88;;;12.50;99.90;;;;;;5072570;28;20032;-56
2023/02/10 11:42:08;;;;;;;41.20;22.35;;;13.20;98.20;;;;;;5072537;28;20480;-57
2023/02/10 11:44:34;;;;;;;42.55;22.33;;;14.00;96.80;;;;;;5072708;28;20483;-55
2023/02/10 11:47:02;;;;;;;38.28;21.52;;;14.30;94.90;;;;;;5072575;28;20029;-57
2023/02/10 11:49:33;;;;;;;37.67;22.63;;;15.20;92.50;;;;;;5072542;28;20040;-55
2023/02/10 11:52:01;;;;;;;35.85;21.05;;;14.90;92.80;;;;;;5072587;28;20055;-54
2023/02/10 11:54:28;;;;;;;34.60;20.67;;;14.90;91.80;;;;;;5072323;28;20116;-56
2023/02/10 12:00:12;;;;;;;36.63;21.63;;;14.90;91.10;;;;;;5072393;28;20047;-54
2023/02/10 12:03:00;;;;;;;33.45;19.20;;;14.10;91.70;;;;;;5072366;28;20033;-54
2023/02/10 12:05:30;;;;;;;34.28;19.67;;;13.90;91.50;;;;;;5070650;28;20028;-51
2023/02/10 12:08:27;;;;;;;33.53;19.23;;;13.80;91.00;;;;;;5072222;28;20480;-57
2023/02/10 12:11:19;;;;;;;34.92;19.00;;;13.70;91.70;;;;;;5071957;28;20028;-57
2023/02/10 12:13:51;;;;;;;32.60;17.33;;;13.80;91.10;;;;;;5071749;28;20032;-54
2023/02/10 12:16:25;;;;;;;37.70;18.95;;;14.10;90.10;;;;;;5071869;28;20123;-55
2023/02/10 12:19:24;;;;;;;33.13;18.30;;;13.80;90.40;;;;;;5071759;28;20063;-54
2023/02/10 12:22:06;;;;;;;32.28;19.10;;;14.40;90.70;;;;;;5050219;28;20439;-55
2023/02/10 12:25:02;;;;;;;29.75;16.60;;;14.70;87.90;;;;;;5071537;28;20042;-55
2023/02/10 12:27:41;;;;;;;31.55;16.08;;;14.20;87.50;;;;;;5071378;28;20025;-55
2023/02/10 12:30:15;;;;;;;26.83;13.95;;;13.60;89.40;;;;;;5071589;28;20086;-54
2023/02/10 12:33:00;;;;;;;27.08;15.07;;;13.00;90.30;;;;;;5071520;28;20097;-53
2023/02/10 12:35:34;;;;;;;27.45;15.07;;;12.80;91.20;;;;;;5071349;28;20032;-55
2023/02/10 12:38:30;;;;;;;31.35;14.55;;;13.10;90.50;;;;;;5071320;28;20044;-53
2023/02/10 12:41:15;;;;;;;25.98;13.10;;;13.70;89.20;;;;;;5071288;28;20166;-54
2023/02/10 12:43:47;;;;;;;24.75;12.73;;;14.20;85.10;;;;;;5071114;28;20120;-56
2023/02/10 12:46:22;;;;;;;24.73;12.90;;;15.00;83.20;;;;;;5071263;28;20032;-56
2023/02/10 12:49:04;;;;;;;25.60;12.60;;;16.00;80.40;;;;;;5071269;28;20052;-55
2023/02/10 12:51:42;;;;;;;25.83;12.65;;;16.50;74.90;;;;;;5071214;28;20142;-56
2023/02/10 12:54:14;;;;;;;21.17;11.43;;;16.20;73.10;;;;;;5071420;28;20024;-57
2023/02/10 12:56:42;;;;;;;21.73;11.43;;;15.80;74.00;;;;;;5070721;28;20031;-56